createdAt,value
2018-08-19T00:05:06.726Z,55.90
2018-08-19T00:10:09.823Z,55.60
2018-08-19T00:15:13.306Z,54.70
2018-08-19T00:20:16.289Z,55.70
2018-08-19T00:25:33.431Z,55.90
2018-08-19T00:30:36.459Z,56.70
2018-08-19T00:35:39.493Z,57.30
2018-08-19T00:40:42.845Z,57.40
2018-08-19T00:45:45.829Z,57.90
2018-08-19T00:50:48.784Z,57.40
2018-08-19T00:55:51.723Z,59.00
2018-08-19T01:00:54.642Z,59.20
2018-08-19T01:05:57.618Z,59.10
2018-08-19T01:11:00.689Z,60.00
2018-08-19T01:16:03.670Z,59.30
2018-08-19T01:21:10.303Z,59.40
2018-08-19T01:26:13.276Z,58.90
2018-08-19T01:31:16.243Z,59.40
2018-08-19T01:36:19.325Z,60.10
2018-08-19T01:41:22.488Z,61.20
2018-08-19T01:46:25.484Z,61.00
2018-08-19T01:51:28.464Z,61.00
2018-08-19T01:56:31.395Z,61.20
2018-08-19T02:02:03.959Z,60.60
2018-08-19T02:07:06.926Z,61.30
2018-08-19T02:12:09.886Z,62.00
2018-08-19T02:17:12.827Z,62.80
2018-08-19T02:22:15.757Z,62.70
2018-08-19T02:27:18.678Z,62.60
2018-08-19T02:32:21.607Z,63.60
2018-08-19T02:37:24.558Z,62.70
2018-08-19T02:42:27.503Z,62.20
2018-08-19T02:47:31.029Z,63.00
2018-08-19T02:52:36.592Z,62.20
2018-08-19T02:57:40.128Z,62.20
2018-08-19T03:02:43.121Z,62.60
2018-08-19T03:07:46.080Z,63.00
2018-08-19T03:12:49.048Z,64.00
2018-08-19T03:17:52.135Z,62.80
2018-08-19T03:22:55.034Z,64.70
2018-08-19T03:27:57.974Z,64.90
2018-08-19T03:33:01.039Z,64.80
2018-08-19T03:38:09.585Z,65.00
2018-08-19T03:43:12.457Z,65.20
2018-08-19T03:48:15.383Z,66.00
2018-08-19T03:53:18.284Z,66.20
2018-08-19T03:58:21.207Z,66.30
2018-08-19T04:03:24.671Z,66.20
2018-08-19T04:08:34.203Z,66.40
2018-08-19T04:13:41.283Z,67.20
2018-08-19T04:18:45.359Z,67.80
2018-08-19T04:23:49.234Z,68.10
2018-08-19T04:28:52.162Z,68.20
2018-08-19T04:33:55.080Z,68.40
2018-08-19T04:38:58.012Z,68.60
2018-08-19T04:44:01.028Z,68.10
2018-08-19T04:49:04.023Z,68.00
2018-08-19T04:54:07.007Z,67.80
2018-08-19T04:59:09.978Z,66.10
2018-08-19T05:04:12.909Z,66.70
2018-08-19T05:09:15.810Z,66.30
2018-08-19T05:14:18.687Z,64.60
2018-08-19T05:19:21.651Z,64.50
2018-08-19T05:24:24.714Z,61.20
2018-08-19T05:29:27.689Z,56.70
2018-08-19T05:34:31.804Z,52.30
2018-08-19T05:39:34.828Z,48.30
2018-08-19T05:44:38.989Z,48.10
2018-08-19T05:49:43.168Z,45.60
2018-08-19T05:54:53.888Z,44.40
2018-08-19T05:59:57.149Z,43.10
2018-08-19T06:05:01.269Z,44.40
2018-08-19T06:10:05.064Z,44.20
2018-08-19T06:15:08.134Z,41.60
2018-08-19T06:20:11.090Z,40.10
2018-08-19T06:25:14.129Z,38.50
2018-08-19T06:30:18.228Z,37.80
2018-08-19T06:35:21.486Z,38.00
2018-08-19T06:40:24.471Z,36.70
2018-08-19T06:45:27.450Z,36.30
2018-08-19T06:50:32.507Z,36.50
2018-08-19T06:55:35.526Z,35.00
2018-08-19T07:00:38.724Z,33.90
2018-08-19T07:05:41.765Z,32.50
2018-08-19T07:10:44.725Z,31.90
2018-08-19T07:15:47.749Z,32.70
2018-08-19T07:20:50.776Z,33.10
2018-08-19T07:25:53.747Z,33.30
2018-08-19T07:30:56.731Z,32.10
2018-08-19T07:35:59.708Z,31.70
2018-08-19T07:41:02.696Z,31.60
2018-08-19T07:46:05.979Z,31.40
2018-08-19T07:51:08.930Z,32.20
2018-08-19T07:56:11.857Z,32.20
2018-08-19T08:01:14.864Z,31.80
2018-08-19T08:06:17.805Z,31.30
2018-08-19T08:11:20.819Z,30.00
2018-08-19T08:16:23.872Z,31.40
2018-08-19T08:21:28.345Z,31.70
2018-08-19T08:26:31.249Z,30.80
2018-08-19T08:31:41.788Z,30.90
2018-08-19T08:36:44.722Z,30.50
2018-08-19T08:41:47.930Z,30.50
2018-08-19T08:46:50.937Z,29.80
2018-08-19T08:51:53.922Z,30.50
2018-08-19T08:56:56.916Z,30.50
2018-08-19T09:01:59.893Z,30.80
2018-08-19T09:07:02.900Z,30.40
2018-08-19T09:12:05.930Z,30.90
2018-08-19T09:17:09.277Z,31.10
2018-08-19T09:22:12.585Z,31.40
2018-08-19T09:27:15.623Z,30.90
2018-08-19T09:32:18.675Z,31.70
2018-08-19T09:37:21.636Z,31.10
2018-08-19T09:42:24.603Z,30.50
2018-08-19T09:47:27.578Z,31.90
2018-08-19T09:52:30.656Z,32.20
2018-08-19T09:57:33.818Z,32.30
2018-08-19T10:02:41.401Z,32.30
2018-08-19T10:07:44.419Z,32.40
2018-08-19T10:12:47.364Z,31.70
2018-08-19T10:17:50.579Z,32.10
2018-08-19T10:22:56.002Z,31.40
2018-08-19T10:27:59.042Z,31.90
2018-08-19T10:33:08.057Z,32.40
2018-08-19T10:38:11.653Z,32.70
2018-08-19T10:43:14.639Z,32.30
2018-08-19T10:48:17.598Z,33.00
2018-08-19T10:53:27.719Z,32.30
2018-08-19T10:58:30.647Z,31.20
2018-08-19T11:03:33.561Z,31.20
2018-08-19T11:08:41.747Z,31.20
2018-08-19T11:13:44.767Z,30.50
2018-08-19T11:18:48.729Z,29.20
2018-08-19T11:23:51.836Z,29.50
2018-08-19T11:28:56.071Z,29.20
2018-08-19T11:34:04.999Z,29.00
2018-08-19T11:39:11.063Z,29.30
2018-08-19T11:44:15.572Z,27.10
2018-08-19T11:49:19.538Z,28.20
2018-08-19T11:54:23.577Z,27.00
2018-08-19T11:59:32.676Z,27.80
2018-08-19T12:04:35.635Z,27.60
2018-08-19T12:09:48.884Z,28.10
2018-08-19T12:14:51.913Z,28.60
2018-08-19T12:19:54.977Z,29.00
2018-08-19T12:24:58.009Z,28.40
2018-08-19T12:30:16.883Z,29.00
2018-08-19T12:35:21.496Z,29.30
2018-08-19T12:40:24.638Z,29.20
2018-08-19T12:45:27.666Z,28.40
2018-08-19T12:50:31.014Z,28.60
2018-08-19T12:55:34.170Z,28.40
2018-08-19T13:00:37.242Z,28.70
2018-08-19T13:05:58.261Z,28.40
2018-08-19T13:11:04.389Z,27.90
2018-08-19T13:16:07.369Z,27.60
2018-08-19T13:21:15.479Z,27.10
2018-08-19T13:26:18.405Z,26.40
2018-08-19T13:31:33.419Z,26.00
2018-08-19T13:36:36.470Z,27.10
2018-08-19T13:41:39.424Z,27.10
2018-08-19T13:46:42.399Z,26.80
2018-08-19T13:51:45.582Z,26.50
2018-08-19T13:56:48.598Z,26.20
2018-08-19T14:01:51.594Z,25.80
2018-08-19T14:06:54.528Z,25.20
2018-08-19T14:11:57.601Z,25.40
2018-08-19T14:17:00.538Z,26.30
2018-08-19T14:22:03.531Z,26.20
2018-08-19T14:27:06.477Z,25.20
2018-08-19T14:32:28.871Z,24.70
2018-08-19T14:37:31.973Z,24.60
2018-08-19T14:42:34.983Z,25.00
2018-08-19T14:47:38.912Z,25.30
2018-08-19T14:52:42.018Z,24.60
2018-08-19T14:57:45.249Z,23.80
2018-08-19T15:02:48.221Z,23.50
2018-08-19T15:07:51.478Z,24.20
2018-08-19T15:12:54.482Z,25.10
2018-08-19T15:17:59.775Z,25.00
2018-08-19T15:23:20.961Z,23.90
2018-08-19T15:28:23.880Z,23.00
2018-08-19T15:33:27.635Z,22.60
2018-08-19T15:38:30.599Z,23.50
2018-08-19T15:43:33.615Z,23.60
2018-08-19T15:48:36.527Z,23.60
2018-08-19T15:53:39.553Z,22.80
2018-08-19T15:58:42.498Z,22.00
2018-08-19T16:03:45.459Z,22.40
2018-08-19T16:08:48.677Z,22.00
2018-08-19T16:13:51.624Z,23.00
2018-08-19T16:18:55.200Z,22.90
2018-08-19T16:23:59.072Z,22.70
2018-08-19T16:29:02.317Z,22.70
2018-08-19T16:34:05.411Z,22.50
2018-08-19T16:39:13.457Z,23.30
2018-08-19T16:44:17.409Z,23.10
2018-08-19T16:49:20.396Z,23.00
2018-08-19T16:54:23.341Z,24.20
2018-08-19T16:59:26.432Z,23.70
2018-08-19T17:04:29.367Z,24.50
2018-08-19T17:09:33.213Z,24.90
2018-08-19T17:14:36.164Z,25.20
2018-08-19T17:19:39.122Z,25.40
2018-08-19T17:24:42.079Z,25.70
2018-08-19T17:29:45.024Z,26.10
2018-08-19T17:34:48.076Z,26.30
2018-08-19T17:39:51.097Z,26.90
2018-08-19T17:44:54.052Z,27.60
2018-08-19T17:49:57.040Z,27.50
2018-08-19T17:55:00.052Z,28.00
2018-08-19T18:00:03.235Z,28.40
2018-08-19T18:05:07.446Z,28.90
2018-08-19T18:10:12.445Z,29.70
2018-08-19T18:15:15.659Z,30.20
2018-08-19T18:20:39.197Z,31.20
2018-08-19T18:25:47.309Z,32.40
2018-08-19T18:30:56.853Z,34.70
2018-08-19T18:35:59.782Z,35.90
2018-08-19T18:41:02.806Z,36.80
2018-08-19T18:46:05.921Z,37.00
2018-08-19T18:51:11.910Z,37.80
2018-08-19T18:56:14.912Z,38.70
2018-08-19T19:01:17.912Z,39.40
2018-08-19T19:06:20.978Z,39.50
2018-08-19T19:11:23.957Z,39.50
2018-08-19T19:16:35.358Z,39.70
2018-08-19T19:21:43.848Z,39.70
2018-08-19T19:26:48.153Z,40.20
2018-08-19T19:31:54.756Z,40.00
2018-08-19T19:36:58.828Z,40.30
2018-08-19T19:42:08.227Z,40.50
2018-08-19T19:47:11.375Z,40.90
2018-08-19T19:52:14.428Z,41.10
2018-08-19T19:57:17.519Z,41.70
2018-08-19T20:02:26.096Z,42.30
2018-08-19T20:07:29.147Z,43.90
2018-08-19T20:12:32.172Z,43.70
2018-08-19T20:17:35.176Z,44.30
2018-08-19T20:22:38.226Z,44.80
2018-08-19T20:27:41.223Z,45.30
2018-08-19T20:32:44.242Z,45.60
2018-08-19T20:37:47.266Z,46.30
2018-08-19T20:42:50.287Z,46.70
2018-08-19T20:47:53.310Z,47.20
2018-08-19T20:53:06.484Z,47.60
2018-08-19T20:58:09.518Z,47.80
2018-08-19T21:03:12.602Z,48.50
2018-08-19T21:08:17.179Z,48.80
2018-08-19T21:13:20.876Z,49.40
2018-08-19T21:18:23.921Z,49.50
2018-08-19T21:23:27.419Z,49.80
2018-08-19T21:28:30.438Z,49.90
2018-08-19T21:33:33.441Z,50.20
2018-08-19T21:38:36.784Z,50.80
2018-08-19T21:43:39.755Z,50.70
2018-08-19T21:48:42.733Z,51.10
2018-08-19T21:53:45.705Z,51.50
2018-08-19T21:58:48.823Z,52.90
2018-08-19T22:03:51.815Z,53.30
2018-08-19T22:08:54.763Z,53.40
2018-08-19T22:13:57.763Z,53.80
2018-08-19T22:19:00.784Z,53.20
2018-08-19T22:24:03.823Z,52.60
2018-08-19T22:29:14.880Z,51.70
2018-08-19T22:34:18.458Z,51.20
2018-08-19T22:39:21.431Z,51.30
2018-08-19T22:44:24.382Z,51.50
2018-08-19T22:49:27.960Z,52.90
2018-08-19T22:54:30.926Z,54.00
2018-08-19T22:59:33.899Z,54.70
2018-08-19T23:04:36.839Z,54.70
2018-08-19T23:09:39.815Z,55.50
2018-08-19T23:15:00.243Z,55.40
2018-08-19T23:20:03.250Z,56.20
2018-08-19T23:25:06.381Z,56.10
2018-08-19T23:30:09.340Z,56.30
2018-08-19T23:35:12.262Z,56.90
2018-08-19T23:40:15.224Z,57.30
2018-08-19T23:45:18.199Z,58.10
2018-08-19T23:50:21.203Z,58.30
2018-08-19T23:55:24.150Z,58.70
